sensor_id;sensor_type;location;lat;lon;timestamp;P1;durP1;ratioP1;P2;durP2;ratioP2
8683;SDS011;4379;59.744;18.206;2023-07-29T00:00:16;1.63;;;1.10;;
8683;SDS011;4379;59.744;18.206;2023-07-29T00:02:44;1.10;;;1.10;;
8683;SDS011;4379;59.744;18.206;2023-07-29T00:05:12;3.73;;;1.30;;
8683;SDS011;4379;59.744;18.206;2023-07-29T00:07:39;1.10;;;1.10;;
8683;SDS011;4379;59.744;18.206;2023-07-29T00:10:07;1.63;;;1.53;;
8683;SDS011;4379;59.744;18.206;2023-07-29T00:12:34;1.30;;;1.20;;
8683;SDS011;4379;59.744;18.206;2023-07-29T00:15:01;2.50;;;1.47;;
8683;SDS011;4379;59.744;18.206;2023-07-29T00:17:29;2.03;;;1.67;;
8683;SDS011;4379;59.744;18.206;2023-07-29T00:19:56;1.70;;;1.70;;
8683;SDS011;4379;59.744;18.206;2023-07-29T00:22:23;1.90;;;1.80;;
8683;SDS011;4379;59.744;18.206;2023-07-29T00:24:51;1.20;;;1.20;;
8683;SDS011;4379;59.744;18.206;2023-07-29T00:27:21;1.50;;;1.40;;
8683;SDS011;4379;59.744;18.206;2023-07-29T00:29:48;2.50;;;1.40;;
8683;SDS011;4379;59.744;18.206;2023-07-29T00:32:15;2.07;;;1.90;;
8683;SDS011;4379;59.744;18.206;2023-07-29T00:34:43;2.00;;;1.80;;
8683;SDS011;4379;59.744;18.206;2023-07-29T00:37:10;11.00;;;2.17;;
8683;SDS011;4379;59.744;18.206;2023-07-29T00:39:38;1.87;;;1.70;;
8683;SDS011;4379;59.744;18.206;2023-07-29T00:42:06;2.20;;;2.00;;
8683;SDS011;4379;59.744;18.206;2023-07-29T00:44:33;2.40;;;2.30;;
8683;SDS011;4379;59.744;18.206;2023-07-29T00:47:00;2.13;;;2.03;;
8683;SDS011;4379;59.744;18.206;2023-07-29T00:49:30;2.10;;;2.00;;
8683;SDS011;4379;59.744;18.206;2023-07-29T00:51:58;1.80;;;1.70;;
8683;SDS011;4379;59.744;18.206;2023-07-29T00:54:26;2.27;;;2.10;;
8683;SDS011;4379;59.744;18.206;2023-07-29T00:56:53;2.23;;;2.10;;
8683;SDS011;4379;59.744;18.206;2023-07-29T00:59:21;1.80;;;1.70;;
8683;SDS011;4379;59.744;18.206;2023-07-29T01:01:49;1.70;;;1.70;;
8683;SDS011;4379;59.744;18.206;2023-07-29T01:04:16;1.90;;;1.80;;
8683;SDS011;4379;59.744;18.206;2023-07-29T01:07:19;2.60;;;2.40;;
8683;SDS011;4379;59.744;18.206;2023-07-29T01:09:51;2.07;;;1.97;;
8683;SDS011;4379;59.744;18.206;2023-07-29T01:17:49;8.60;;;3.27;;
8683;SDS011;4379;59.744;18.206;2023-07-29T01:20:21;3.47;;;2.37;;
8683;SDS011;4379;59.744;18.206;2023-07-29T01:22:51;3.10;;;2.60;;
8683;SDS011;4379;59.744;18.206;2023-07-29T01:25:19;5.90;;;2.53;;
8683;SDS011;4379;59.744;18.206;2023-07-29T01:27:46;2.50;;;2.30;;
8683;SDS011;4379;59.744;18.206;2023-07-29T01:30:15;2.20;;;2.10;;
8683;SDS011;4379;59.744;18.206;2023-07-29T01:32:54;2.20;;;2.10;;
8683;SDS011;4379;59.744;18.206;2023-07-29T01:36:11;2.40;;;1.70;;
8683;SDS011;4379;59.744;18.206;2023-07-29T01:38:44;3.03;;;2.17;;
8683;SDS011;4379;59.744;18.206;2023-07-29T01:41:12;1.90;;;1.80;;
8683;SDS011;4379;59.744;18.206;2023-07-29T01:43:41;2.30;;;2.00;;
8683;SDS011;4379;59.744;18.206;2023-07-29T01:46:11;2.50;;;2.40;;
8683;SDS011;4379;59.744;18.206;2023-07-29T01:48:39;2.27;;;2.10;;
8683;SDS011;4379;59.744;18.206;2023-07-29T01:51:06;2.70;;;2.50;;
8683;SDS011;4379;59.744;18.206;2023-07-29T01:53:34;2.57;;;2.47;;
8683;SDS011;4379;59.744;18.206;2023-07-29T01:56:01;2.40;;;2.20;;
8683;SDS011;4379;59.744;18.206;2023-07-29T01:58:29;2.27;;;2.17;;
8683;SDS011;4379;59.744;18.206;2023-07-29T02:00:56;2.27;;;2.17;;
8683;SDS011;4379;59.744;18.206;2023-07-29T02:03:23;2.53;;;2.33;;
8683;SDS011;4379;59.744;18.206;2023-07-29T02:05:50;4.50;;;2.50;;
8683;SDS011;4379;59.744;18.206;2023-07-29T02:08:18;2.53;;;2.10;;
8683;SDS011;4379;59.744;18.206;2023-07-29T02:10:45;2.30;;;2.20;;
8683;SDS011;4379;59.744;18.206;2023-07-29T02:13:13;2.40;;;2.30;;
8683;SDS011;4379;59.744;18.206;2023-07-29T02:15:41;2.47;;;2.30;;
8683;SDS011;4379;59.744;18.206;2023-07-29T02:18:09;2.77;;;2.50;;
8683;SDS011;4379;59.744;18.206;2023-07-29T02:20:36;2.60;;;2.50;;
8683;SDS011;4379;59.744;18.206;2023-07-29T02:23:03;3.00;;;2.80;;
8683;SDS011;4379;59.744;18.206;2023-07-29T02:25:31;3.13;;;2.43;;
8683;SDS011;4379;59.744;18.206;2023-07-29T02:28:01;3.37;;;2.97;;
8683;SDS011;4379;59.744;18.206;2023-07-29T02:30:30;2.73;;;2.53;;
8683;SDS011;4379;59.744;18.206;2023-07-29T02:32:57;2.93;;;2.70;;
8683;SDS011;4379;59.744;18.206;2023-07-29T02:35:26;2.70;;;2.60;;
8683;SDS011;4379;59.744;18.206;2023-07-29T02:37:54;3.03;;;2.83;;
8683;SDS011;4379;59.744;18.206;2023-07-29T02:40:21;2.90;;;2.80;;
8683;SDS011;4379;59.744;18.206;2023-07-29T02:42:49;2.80;;;2.60;;
8683;SDS011;4379;59.744;18.206;2023-07-29T02:45:16;3.07;;;2.77;;
8683;SDS011;4379;59.744;18.206;2023-07-29T02:47:43;3.00;;;2.80;;
8683;SDS011;4379;59.744;18.206;2023-07-29T02:50:11;2.70;;;2.60;;
8683;SDS011;4379;59.744;18.206;2023-07-29T02:52:38;2.83;;;2.60;;
8683;SDS011;4379;59.744;18.206;2023-07-29T02:55:05;2.90;;;2.70;;
8683;SDS011;4379;59.744;18.206;2023-07-29T02:57:33;2.77;;;2.60;;
8683;SDS011;4379;59.744;18.206;2023-07-29T03:00:00;3.47;;;2.60;;
8683;SDS011;4379;59.744;18.206;2023-07-29T03:02:27;2.97;;;2.70;;
8683;SDS011;4379;59.744;18.206;2023-07-29T03:04:55;2.67;;;2.57;;
8683;SDS011;4379;59.744;18.206;2023-07-29T03:07:22;3.03;;;2.83;;
8683;SDS011;4379;59.744;18.206;2023-07-29T03:09:49;3.10;;;2.90;;
8683;SDS011;4379;59.744;18.206;2023-07-29T03:12:16;2.43;;;2.33;;
8683;SDS011;4379;59.744;18.206;2023-07-29T03:14:44;2.87;;;2.67;;
8683;SDS011;4379;59.744;18.206;2023-07-29T03:17:15;2.63;;;2.53;;
8683;SDS011;4379;59.744;18.206;2023-07-29T03:19:42;2.43;;;2.33;;
8683;SDS011;4379;59.744;18.206;2023-07-29T03:22:09;3.00;;;2.90;;
8683;SDS011;4379;59.744;18.206;2023-07-29T03:24:36;2.87;;;2.67;;
8683;SDS011;4379;59.744;18.206;2023-07-29T03:27:04;2.93;;;2.53;;
8683;SDS011;4379;59.744;18.206;2023-07-29T03:29:32;2.67;;;2.57;;
8683;SDS011;4379;59.744;18.206;2023-07-29T03:31:59;3.30;;;2.23;;
8683;SDS011;4379;59.744;18.206;2023-07-29T03:34:26;2.63;;;2.43;;
8683;SDS011;4379;59.744;18.206;2023-07-29T03:36:53;2.87;;;2.70;;
8683;SDS011;4379;59.744;18.206;2023-07-29T03:39:20;2.43;;;2.33;;
8683;SDS011;4379;59.744;18.206;2023-07-29T03:41:48;2.63;;;2.43;;
8683;SDS011;4379;59.744;18.206;2023-07-29T03:44:15;3.47;;;2.50;;
8683;SDS011;4379;59.744;18.206;2023-07-29T03:46:46;3.17;;;2.67;;
8683;SDS011;4379;59.744;18.206;2023-07-29T03:49:14;4.77;;;2.43;;
8683;SDS011;4379;59.744;18.206;2023-07-29T03:51:41;2.33;;;2.13;;
8683;SDS011;4379;59.744;18.206;2023-07-29T03:54:08;2.57;;;2.37;;
8683;SDS011;4379;59.744;18.206;2023-07-29T03:56:35;2.30;;;2.20;;
8683;SDS011;4379;59.744;18.206;2023-07-29T03:59:04;2.20;;;2.00;;
8683;SDS011;4379;59.744;18.206;2023-07-29T04:01:32;2.50;;;2.30;;
8683;SDS011;4379;59.744;18.206;2023-07-29T04:03:59;2.40;;;2.20;;
8683;SDS011;4379;59.744;18.206;2023-07-29T04:06:26;2.20;;;2.10;;
8683;SDS011;4379;59.744;18.206;2023-07-29T04:08:54;2.30;;;2.20;;
8683;SDS011;4379;59.744;18.206;2023-07-29T04:11:22;2.13;;;2.03;;
8683;SDS011;4379;59.744;18.206;2023-07-29T04:13:50;2.37;;;2.27;;
8683;SDS011;4379;59.744;18.206;2023-07-29T04:16:17;2.03;;;1.90;;
8683;SDS011;4379;59.744;18.206;2023-07-29T04:18:44;2.20;;;2.00;;
8683;SDS011;4379;59.744;18.206;2023-07-29T04:21:11;1.85;;;1.75;;
8683;SDS011;4379;59.744;18.206;2023-07-29T04:23:39;2.05;;;1.67;;
8683;SDS011;4379;59.744;18.206;2023-07-29T04:26:06;1.88;;;1.60;;
8683;SDS011;4379;59.744;18.206;2023-07-29T04:28:33;2.72;;;1.80;;
8683;SDS011;4379;59.744;18.206;2023-07-29T04:31:01;5.85;;;1.80;;
8683;SDS011;4379;59.744;18.206;2023-07-29T04:33:31;1.33;;;1.33;;
8683;SDS011;4379;59.744;18.206;2023-07-29T04:36:02;1.55;;;1.48;;
8683;SDS011;4379;59.744;18.206;2023-07-29T04:38:31;1.35;;;1.20;;
8683;SDS011;4379;59.744;18.206;2023-07-29T04:41:00;3.72;;;1.00;;
8683;SDS011;4379;59.744;18.206;2023-07-29T04:43:30;1.15;;;1.05;;
8683;SDS011;4379;59.744;18.206;2023-07-29T04:45:58;0.98;;;0.98;;
8683;SDS011;4379;59.744;18.206;2023-07-29T04:48:26;2.38;;;1.20;;
8683;SDS011;4379;59.744;18.206;2023-07-29T04:50:53;0.80;;;0.80;;
8683;SDS011;4379;59.744;18.206;2023-07-29T04:53:20;4.25;;;0.90;;
8683;SDS011;4379;59.744;18.206;2023-07-29T04:55:47;0.90;;;0.90;;
8683;SDS011;4379;59.744;18.206;2023-07-29T04:58:14;1.20;;;1.10;;
8683;SDS011;4379;59.744;18.206;2023-07-29T05:00:42;1.27;;;1.08;;
8683;SDS011;4379;59.744;18.206;2023-07-29T05:03:09;0.90;;;0.90;;
8683;SDS011;4379;59.744;18.206;2023-07-29T05:05:36;0.70;;;0.70;;
8683;SDS011;4379;59.744;18.206;2023-07-29T05:08:03;1.00;;;1.00;;
8683;SDS011;4379;59.744;18.206;2023-07-29T05:10:30;0.88;;;0.80;;
8683;SDS011;4379;59.744;18.206;2023-07-29T05:12:58;1.02;;;0.93;;
8683;SDS011;4379;59.744;18.206;2023-07-29T05:15:25;1.10;;;0.80;;
8683;SDS011;4379;59.744;18.206;2023-07-29T05:17:52;2.35;;;0.90;;
8683;SDS011;4379;59.744;18.206;2023-07-29T05:20:19;0.80;;;0.80;;
8683;SDS011;4379;59.744;18.206;2023-07-29T05:22:46;1.00;;;0.93;;
8683;SDS011;4379;59.744;18.206;2023-07-29T05:25:14;0.80;;;0.80;;
8683;SDS011;4379;59.744;18.206;2023-07-29T05:27:41;1.00;;;1.00;;
8683;SDS011;4379;59.744;18.206;2023-07-29T05:30:08;0.93;;;0.93;;
8683;SDS011;4379;59.744;18.206;2023-07-29T05:32:36;1.40;;;0.73;;
8683;SDS011;4379;59.744;18.206;2023-07-29T05:35:03;0.85;;;0.85;;
8683;SDS011;4379;59.744;18.206;2023-07-29T05:37:31;0.80;;;0.77;;
8683;SDS011;4379;59.744;18.206;2023-07-29T05:39:58;1.23;;;0.93;;
8683;SDS011;4379;59.744;18.206;2023-07-29T05:42:25;0.80;;;0.80;;
8683;SDS011;4379;59.744;18.206;2023-07-29T05:44:53;1.25;;;0.98;;
8683;SDS011;4379;59.744;18.206;2023-07-29T05:47:20;0.85;;;0.85;;
8683;SDS011;4379;59.744;18.206;2023-07-29T05:49:47;0.90;;;0.90;;
8683;SDS011;4379;59.744;18.206;2023-07-29T05:52:14;0.80;;;0.80;;
8683;SDS011;4379;59.744;18.206;2023-07-29T05:54:42;0.82;;;0.68;;
8683;SDS011;4379;59.744;18.206;2023-07-29T05:57:10;0.73;;;0.73;;
8683;SDS011;4379;59.744;18.206;2023-07-29T05:59:38;1.70;;;0.80;;
8683;SDS011;4379;59.744;18.206;2023-07-29T06:02:06;1.05;;;0.98;;
8683;SDS011;4379;59.744;18.206;2023-07-29T06:04:33;1.38;;;0.60;;
8683;SDS011;4379;59.744;18.206;2023-07-29T06:07:01;1.95;;;0.80;;
8683;SDS011;4379;59.744;18.206;2023-07-29T06:09:28;0.85;;;0.85;;
8683;SDS011;4379;59.744;18.206;2023-07-29T06:11:55;0.80;;;0.80;;
8683;SDS011;4379;59.744;18.206;2023-07-29T06:14:22;1.50;;;0.82;;
8683;SDS011;4379;59.744;18.206;2023-07-29T06:16:50;0.82;;;0.82;;
8683;SDS011;4379;59.744;18.206;2023-07-29T06:19:18;0.73;;;0.73;;
8683;SDS011;4379;59.744;18.206;2023-07-29T06:21:46;0.70;;;0.70;;
8683;SDS011;4379;59.744;18.206;2023-07-29T06:24:13;2.10;;;0.70;;
8683;SDS011;4379;59.744;18.206;2023-07-29T06:26:41;0.80;;;0.80;;
8683;SDS011;4379;59.744;18.206;2023-07-29T06:29:08;1.15;;;0.90;;
8683;SDS011;4379;59.744;18.206;2023-07-29T06:31:35;0.80;;;0.80;;
8683;SDS011;4379;59.744;18.206;2023-07-29T06:34:02;0.95;;;0.95;;
8683;SDS011;4379;59.744;18.206;2023-07-29T06:36:30;1.70;;;0.93;;
8683;SDS011;4379;59.744;18.206;2023-07-29T06:38:58;0.80;;;0.80;;
8683;SDS011;4379;59.744;18.206;2023-07-29T06:41:25;1.38;;;1.05;;
8683;SDS011;4379;59.744;18.206;2023-07-29T06:43:52;1.52;;;0.82;;
8683;SDS011;4379;59.744;18.206;2023-07-29T06:46:20;1.10;;;1.00;;
8683;SDS011;4379;59.744;18.206;2023-07-29T06:48:47;0.90;;;0.90;;
8683;SDS011;4379;59.744;18.206;2023-07-29T06:51:14;1.10;;;0.90;;
8683;SDS011;4379;59.744;18.206;2023-07-29T06:53:41;1.20;;;1.10;;
8683;SDS011;4379;59.744;18.206;2023-07-29T06:56:09;0.75;;;0.75;;
8683;SDS011;4379;59.744;18.206;2023-07-29T06:58:36;1.55;;;0.90;;
8683;SDS011;4379;59.744;18.206;2023-07-29T07:01:04;0.95;;;0.70;;
8683;SDS011;4379;59.744;18.206;2023-07-29T07:03:31;1.23;;;0.90;;
8683;SDS011;4379;59.744;18.206;2023-07-29T07:05:59;1.10;;;1.00;;
8683;SDS011;4379;59.744;18.206;2023-07-29T07:08:26;0.90;;;0.90;;
8683;SDS011;4379;59.744;18.206;2023-07-29T07:10:53;0.82;;;0.82;;
8683;SDS011;4379;59.744;18.206;2023-07-29T07:13:20;1.00;;;1.00;;
8683;SDS011;4379;59.744;18.206;2023-07-29T07:15:48;1.27;;;1.05;;
8683;SDS011;4379;59.744;18.206;2023-07-29T07:18:15;0.90;;;0.90;;
8683;SDS011;4379;59.744;18.206;2023-07-29T07:20:42;1.15;;;0.98;;
8683;SDS011;4379;59.744;18.206;2023-07-29T07:23:10;0.93;;;0.85;;
8683;SDS011;4379;59.744;18.206;2023-07-29T07:25:40;0.85;;;0.85;;
8683;SDS011;4379;59.744;18.206;2023-07-29T07:28:09;1.60;;;1.00;;
8683;SDS011;4379;59.744;18.206;2023-07-29T07:30:40;1.45;;;1.10;;
8683;SDS011;4379;59.744;18.206;2023-07-29T07:33:10;2.10;;;0.93;;
8683;SDS011;4379;59.744;18.206;2023-07-29T07:35:37;0.98;;;0.88;;
8683;SDS011;4379;59.744;18.206;2023-07-29T07:38:04;0.85;;;0.85;;
8683;SDS011;4379;59.744;18.206;2023-07-29T07:40:34;1.20;;;1.10;;
8683;SDS011;4379;59.744;18.206;2023-07-29T07:43:01;1.10;;;1.10;;
8683;SDS011;4379;59.744;18.206;2023-07-29T07:45:28;1.20;;;1.17;;
8683;SDS011;4379;59.744;18.206;2023-07-29T07:47:56;1.15;;;0.90;;
8683;SDS011;4379;59.744;18.206;2023-07-29T07:50:23;1.10;;;1.10;;
8683;SDS011;4379;59.744;18.206;2023-07-29T07:52:50;1.30;;;1.13;;
8683;SDS011;4379;59.744;18.206;2023-07-29T07:55:18;1.65;;;1.05;;
8683;SDS011;4379;59.744;18.206;2023-07-29T07:57:45;0.93;;;0.93;;
8683;SDS011;4379;59.744;18.206;2023-07-29T08:00:13;0.93;;;0.93;;
8683;SDS011;4379;59.744;18.206;2023-07-29T08:02:43;1.23;;;1.13;;
8683;SDS011;4379;59.744;18.206;2023-07-29T08:05:11;1.13;;;1.13;;
8683;SDS011;4379;59.744;18.206;2023-07-29T08:07:38;1.55;;;0.90;;
8683;SDS011;4379;59.744;18.206;2023-07-29T08:10:05;1.25;;;1.15;;
8683;SDS011;4379;59.744;18.206;2023-07-29T08:12:33;2.40;;;1.27;;
8683;SDS011;4379;59.744;18.206;2023-07-29T08:15:00;1.80;;;1.05;;
8683;SDS011;4379;59.744;18.206;2023-07-29T08:17:29;1.20;;;1.20;;
8683;SDS011;4379;59.744;18.206;2023-07-29T08:19:56;1.00;;;1.00;;
8683;SDS011;4379;59.744;18.206;2023-07-29T08:22:24;1.02;;;1.02;;
8683;SDS011;4379;59.744;18.206;2023-07-29T08:24:51;1.20;;;1.20;;
8683;SDS011;4379;59.744;18.206;2023-07-29T08:27:19;1.80;;;1.15;;
8683;SDS011;4379;59.744;18.206;2023-07-29T08:29:46;1.20;;;1.20;;
8683;SDS011;4379;59.744;18.206;2023-07-29T08:32:13;1.30;;;1.20;;
8683;SDS011;4379;59.744;18.206;2023-07-29T08:34:41;1.02;;;1.02;;
8683;SDS011;4379;59.744;18.206;2023-07-29T08:37:08;1.00;;;1.00;;
8683;SDS011;4379;59.744;18.206;2023-07-29T08:39:35;1.15;;;1.15;;
8683;SDS011;4379;59.744;18.206;2023-07-29T08:42:07;1.30;;;1.30;;
8683;SDS011;4379;59.744;18.206;2023-07-29T08:44:41;1.02;;;0.93;;
8683;SDS011;4379;59.744;18.206;2023-07-29T08:47:09;1.10;;;1.10;;
8683;SDS011;4379;59.744;18.206;2023-07-29T08:49:40;1.10;;;1.10;;
8683;SDS011;4379;59.744;18.206;2023-07-29T08:52:08;2.03;;;1.00;;
8683;SDS011;4379;59.744;18.206;2023-07-29T08:54:36;1.00;;;1.00;;
8683;SDS011;4379;59.744;18.206;2023-07-29T08:57:03;1.10;;;1.10;;
8683;SDS011;4379;59.744;18.206;2023-07-29T08:59:33;1.60;;;1.17;;
8683;SDS011;4379;59.744;18.206;2023-07-29T09:02:00;1.73;;;1.25;;
8683;SDS011;4379;59.744;18.206;2023-07-29T09:04:28;1.42;;;1.23;;
8683;SDS011;4379;59.744;18.206;2023-07-29T09:06:55;1.92;;;1.27;;
8683;SDS011;4379;59.744;18.206;2023-07-29T09:09:25;1.58;;;1.48;;
8683;SDS011;4379;59.744;18.206;2023-07-29T09:11:53;1.40;;;1.40;;
8683;SDS011;4379;59.744;18.206;2023-07-29T09:14:20;2.40;;;1.55;;
8683;SDS011;4379;59.744;18.206;2023-07-29T09:16:47;1.40;;;1.30;;
8683;SDS011;4379;59.744;18.206;2023-07-29T09:19:15;1.25;;;1.20;;
8683;SDS011;4379;59.744;18.206;2023-07-29T09:21:42;1.15;;;1.15;;
8683;SDS011;4379;59.744;18.206;2023-07-29T09:24:12;1.85;;;1.10;;
8683;SDS011;4379;59.744;18.206;2023-07-29T09:26:51;1.42;;;1.10;;
8683;SDS011;4379;59.744;18.206;2023-07-29T09:29:23;1.50;;;1.40;;
8683;SDS011;4379;59.744;18.206;2023-07-29T09:31:54;1.50;;;1.35;;
8683;SDS011;4379;59.744;18.206;2023-07-29T09:34:41;2.60;;;1.23;;
8683;SDS011;4379;59.744;18.206;2023-07-29T09:37:08;1.58;;;1.20;;
8683;SDS011;4379;59.744;18.206;2023-07-29T09:39:35;1.13;;;1.00;;
8683;SDS011;4379;59.744;18.206;2023-07-29T09:42:02;2.13;;;1.20;;
8683;SDS011;4379;59.744;18.206;2023-07-29T09:44:35;1.20;;;1.20;;
8683;SDS011;4379;59.744;18.206;2023-07-29T09:47:03;1.40;;;1.30;;
8683;SDS011;4379;59.744;18.206;2023-07-29T09:49:34;1.20;;;1.20;;
8683;SDS011;4379;59.744;18.206;2023-07-29T09:52:03;1.30;;;1.20;;
8683;SDS011;4379;59.744;18.206;2023-07-29T09:54:31;1.27;;;1.15;;
8683;SDS011;4379;59.744;18.206;2023-07-29T09:56:59;1.15;;;1.05;;
8683;SDS011;4379;59.744;18.206;2023-07-29T09:59:26;1.20;;;1.10;;
8683;SDS011;4379;59.744;18.206;2023-07-29T10:01:53;1.58;;;1.45;;
8683;SDS011;4379;59.744;18.206;2023-07-29T10:04:21;2.50;;;1.27;;
8683;SDS011;4379;59.744;18.206;2023-07-29T10:06:49;1.08;;;1.02;;
8683;SDS011;4379;59.744;18.206;2023-07-29T10:09:16;1.27;;;1.27;;
8683;SDS011;4379;59.744;18.206;2023-07-29T10:11:44;1.10;;;1.10;;
8683;SDS011;4379;59.744;18.206;2023-07-29T10:14:12;1.38;;;1.38;;
8683;SDS011;4379;59.744;18.206;2023-07-29T10:16:40;1.42;;;1.23;;
8683;SDS011;4379;59.744;18.206;2023-07-29T10:19:09;2.10;;;1.42;;
8683;SDS011;4379;59.744;18.206;2023-07-29T10:21:37;1.55;;;1.45;;
8683;SDS011;4379;59.744;18.206;2023-07-29T10:24:09;1.45;;;1.30;;
8683;SDS011;4379;59.744;18.206;2023-07-29T10:26:43;1.20;;;1.20;;
8683;SDS011;4379;59.744;18.206;2023-07-29T10:29:13;1.17;;;1.17;;
8683;SDS011;4379;59.744;18.206;2023-07-29T10:31:45;1.40;;;1.38;;
8683;SDS011;4379;59.744;18.206;2023-07-29T10:34:13;1.20;;;1.20;;
8683;SDS011;4379;59.744;18.206;2023-07-29T10:36:44;1.17;;;1.17;;
8683;SDS011;4379;59.744;18.206;2023-07-29T10:39:12;1.90;;;1.20;;
8683;SDS011;4379;59.744;18.206;2023-07-29T10:41:56;1.23;;;1.15;;
8683;SDS011;4379;59.744;18.206;2023-07-29T10:47:12;1.95;;;1.10;;
8683;SDS011;4379;59.744;18.206;2023-07-29T10:49:40;1.20;;;1.20;;
8683;SDS011;4379;59.744;18.206;2023-07-29T10:52:08;3.03;;;1.20;;
8683;SDS011;4379;59.744;18.206;2023-07-29T10:54:46;1.77;;;1.20;;
8683;SDS011;4379;59.744;18.206;2023-07-29T10:57:15;1.00;;;1.00;;
8683;SDS011;4379;59.744;18.206;2023-07-29T10:59:57;1.20;;;1.20;;
8683;SDS011;4379;59.744;18.206;2023-07-29T11:02:28;1.30;;;1.30;;
8683;SDS011;4379;59.744;18.206;2023-07-29T11:04:57;1.17;;;1.02;;
8683;SDS011;4379;59.744;18.206;2023-07-29T11:07:26;1.90;;;1.20;;
8683;SDS011;4379;59.744;18.206;2023-07-29T11:09:55;0.95;;;0.95;;
8683;SDS011;4379;59.744;18.206;2023-07-29T11:15:04;1.25;;;1.25;;
8683;SDS011;4379;59.744;18.206;2023-07-29T11:17:51;1.77;;;1.40;;
8683;SDS011;4379;59.744;18.206;2023-07-29T11:20:21;1.23;;;1.23;;
8683;SDS011;4379;59.744;18.206;2023-07-29T11:22:50;1.10;;;1.10;;
8683;SDS011;4379;59.744;18.206;2023-07-29T11:25:17;1.30;;;1.30;;
8683;SDS011;4379;59.744;18.206;2023-07-29T11:27:45;1.30;;;1.20;;
8683;SDS011;4379;59.744;18.206;2023-07-29T11:30:14;1.10;;;1.10;;
8683;SDS011;4379;59.744;18.206;2023-07-29T11:32:43;1.17;;;1.17;;
8683;SDS011;4379;59.744;18.206;2023-07-29T11:35:13;1.27;;;1.25;;
8683;SDS011;4379;59.744;18.206;2023-07-29T11:37:45;1.48;;;1.38;;
8683;SDS011;4379;59.744;18.206;2023-07-29T11:40:17;1.33;;;1.33;;
8683;SDS011;4379;59.744;18.206;2023-07-29T11:42:47;1.23;;;1.13;;
8683;SDS011;4379;59.744;18.206;2023-07-29T11:45:19;1.33;;;1.25;;
8683;SDS011;4379;59.744;18.206;2023-07-29T11:47:51;1.23;;;1.15;;
8683;SDS011;4379;59.744;18.206;2023-07-29T11:50:18;1.20;;;1.20;;
8683;SDS011;4379;59.744;18.206;2023-07-29T11:52:46;1.20;;;1.20;;
8683;SDS011;4379;59.744;18.206;2023-07-29T11:55:14;1.25;;;1.25;;
8683;SDS011;4379;59.744;18.206;2023-07-29T11:57:43;1.00;;;1.00;;
8683;SDS011;4379;59.744;18.206;2023-07-29T12:00:11;1.10;;;1.10;;
8683;SDS011;4379;59.744;18.206;2023-07-29T12:02:40;1.27;;;1.10;;
8683;SDS011;4379;59.744;18.206;2023-07-29T12:05:11;1.30;;;1.20;;
8683;SDS011;4379;59.744;18.206;2023-07-29T12:07:41;1.20;;;1.20;;
8683;SDS011;4379;59.744;18.206;2023-07-29T12:10:10;1.27;;;1.15;;
8683;SDS011;4379;59.744;18.206;2023-07-29T12:12:59;1.20;;;1.20;;
8683;SDS011;4379;59.744;18.206;2023-07-29T12:15:26;1.40;;;1.23;;
8683;SDS011;4379;59.744;18.206;2023-07-29T12:17:55;1.20;;;1.20;;
8683;SDS011;4379;59.744;18.206;2023-07-29T12:20:24;1.63;;;1.45;;
8683;SDS011;4379;59.744;18.206;2023-07-29T12:22:53;1.10;;;1.10;;
8683;SDS011;4379;59.744;18.206;2023-07-29T12:25:21;1.15;;;1.10;;
8683;SDS011;4379;59.744;18.206;2023-07-29T12:27:49;1.10;;;1.10;;
8683;SDS011;4379;59.744;18.206;2023-07-29T12:30:20;1.20;;;1.20;;
8683;SDS011;4379;59.744;18.206;2023-07-29T12:32:48;1.20;;;1.20;;
8683;SDS011;4379;59.744;18.206;2023-07-29T12:35:16;1.20;;;1.10;;
8683;SDS011;4379;59.744;18.206;2023-07-29T12:37:43;0.98;;;0.98;;
8683;SDS011;4379;59.744;18.206;2023-07-29T12:40:23;1.42;;;1.33;;
8683;SDS011;4379;59.744;18.206;2023-07-29T12:42:52;1.08;;;1.08;;
8683;SDS011;4379;59.744;18.206;2023-07-29T12:45:20;1.00;;;1.00;;
8683;SDS011;4379;59.744;18.206;2023-07-29T12:47:54;1.40;;;1.30;;
8683;SDS011;4379;59.744;18.206;2023-07-29T12:50:22;1.20;;;1.20;;
8683;SDS011;4379;59.744;18.206;2023-07-29T12:52:49;1.25;;;1.25;;
8683;SDS011;4379;59.744;18.206;2023-07-29T12:55:16;1.25;;;1.25;;
8683;SDS011;4379;59.744;18.206;2023-07-29T12:57:49;1.30;;;1.20;;
8683;SDS011;4379;59.744;18.206;2023-07-29T13:00:17;1.67;;;1.30;;
8683;SDS011;4379;59.744;18.206;2023-07-29T13:02:44;1.08;;;1.08;;
8683;SDS011;4379;59.744;18.206;2023-07-29T13:05:12;1.13;;;1.13;;
8683;SDS011;4379;59.744;18.206;2023-07-29T13:07:39;2.03;;;1.25;;
8683;SDS011;4379;59.744;18.206;2023-07-29T13:10:10;1.10;;;1.10;;
8683;SDS011;4379;59.744;18.206;2023-07-29T13:12:38;1.30;;;1.30;;
8683;SDS011;4379;59.744;18.206;2023-07-29T13:15:06;1.30;;;1.30;;
8683;SDS011;4379;59.744;18.206;2023-07-29T13:17:34;1.10;;;1.10;;
8683;SDS011;4379;59.744;18.206;2023-07-29T13:20:01;1.10;;;1.10;;
8683;SDS011;4379;59.744;18.206;2023-07-29T13:22:29;1.50;;;1.30;;
8683;SDS011;4379;59.744;18.206;2023-07-29T13:24:56;0.95;;;0.95;;
8683;SDS011;4379;59.744;18.206;2023-07-29T13:27:23;1.30;;;1.30;;
8683;SDS011;4379;59.744;18.206;2023-07-29T13:29:52;1.27;;;1.10;;
8683;SDS011;4379;59.744;18.206;2023-07-29T13:32:19;1.40;;;1.30;;
8683;SDS011;4379;59.744;18.206;2023-07-29T13:34:46;1.35;;;1.10;;
8683;SDS011;4379;59.744;18.206;2023-07-29T13:37:13;1.65;;;1.30;;
8683;SDS011;4379;59.744;18.206;2023-07-29T13:39:41;1.17;;;1.17;;
8683;SDS011;4379;59.744;18.206;2023-07-29T13:42:08;1.33;;;1.33;;
8683;SDS011;4379;59.744;18.206;2023-07-29T13:44:35;1.55;;;1.02;;
8683;SDS011;4379;59.744;18.206;2023-07-29T13:47:02;1.00;;;1.00;;
8683;SDS011;4379;59.744;18.206;2023-07-29T13:49:30;1.15;;;1.15;;
8683;SDS011;4379;59.744;18.206;2023-07-29T13:51:57;1.88;;;1.23;;
8683;SDS011;4379;59.744;18.206;2023-07-29T13:54:24;1.33;;;1.20;;
8683;SDS011;4379;59.744;18.206;2023-07-29T13:56:52;1.15;;;1.15;;
8683;SDS011;4379;59.744;18.206;2023-07-29T13:59:20;1.10;;;1.10;;
8683;SDS011;4379;59.744;18.206;2023-07-29T14:01:48;1.30;;;1.30;;
8683;SDS011;4379;59.744;18.206;2023-07-29T14:04:15;3.25;;;1.40;;
8683;SDS011;4379;59.744;18.206;2023-07-29T14:06:42;2.35;;;1.23;;
8683;SDS011;4379;59.744;18.206;2023-07-29T14:09:14;1.38;;;1.38;;
8683;SDS011;4379;59.744;18.206;2023-07-29T14:11:41;1.30;;;1.30;;
8683;SDS011;4379;59.744;18.206;2023-07-29T14:14:08;2.42;;;1.40;;
8683;SDS011;4379;59.744;18.206;2023-07-29T14:16:36;1.00;;;1.00;;
8683;SDS011;4379;59.744;18.206;2023-07-29T14:19:04;1.00;;;1.00;;
8683;SDS011;4379;59.744;18.206;2023-07-29T14:21:31;1.23;;;1.23;;
8683;SDS011;4379;59.744;18.206;2023-07-29T14:23:58;1.10;;;1.10;;
8683;SDS011;4379;59.744;18.206;2023-07-29T14:26:25;1.10;;;1.10;;
8683;SDS011;4379;59.744;18.206;2023-07-29T14:28:53;1.17;;;1.17;;
8683;SDS011;4379;59.744;18.206;2023-07-29T14:31:20;1.20;;;1.20;;
8683;SDS011;4379;59.744;18.206;2023-07-29T14:33:48;1.13;;;1.13;;
8683;SDS011;4379;59.744;18.206;2023-07-29T14:36:16;1.40;;;1.30;;
8683;SDS011;4379;59.744;18.206;2023-07-29T14:38:43;1.10;;;1.10;;
8683;SDS011;4379;59.744;18.206;2023-07-29T14:41:10;1.40;;;1.30;;
8683;SDS011;4379;59.744;18.206;2023-07-29T14:43:38;1.20;;;1.20;;
8683;SDS011;4379;59.744;18.206;2023-07-29T14:46:05;1.38;;;1.25;;
8683;SDS011;4379;59.744;18.206;2023-07-29T14:48:33;1.13;;;1.13;;
8683;SDS011;4379;59.744;18.206;2023-07-29T14:51:00;1.17;;;1.10;;
8683;SDS011;4379;59.744;18.206;2023-07-29T14:53:27;1.30;;;1.30;;
8683;SDS011;4379;59.744;18.206;2023-07-29T14:55:54;1.10;;;1.10;;
8683;SDS011;4379;59.744;18.206;2023-07-29T14:58:22;1.02;;;1.02;;
8683;SDS011;4379;59.744;18.206;2023-07-29T15:00:51;1.00;;;1.00;;
8683;SDS011;4379;59.744;18.206;2023-07-29T15:03:19;1.52;;;1.33;;
8683;SDS011;4379;59.744;18.206;2023-07-29T15:05:46;1.65;;;1.40;;
8683;SDS011;4379;59.744;18.206;2023-07-29T15:08:14;1.58;;;1.40;;
8683;SDS011;4379;59.744;18.206;2023-07-29T15:10:44;1.30;;;1.20;;
8683;SDS011;4379;59.744;18.206;2023-07-29T15:13:13;1.95;;;1.40;;
8683;SDS011;4379;59.744;18.206;2023-07-29T15:15:40;1.40;;;1.30;;
8683;SDS011;4379;59.744;18.206;2023-07-29T15:18:08;1.40;;;1.30;;